Time;durP1;ratioP1;P1;durP2;ratioP2;P2;SDS_P1;SDS_P2;PMS_P1;PMS_P2;Temp;Humidity;BMP_temperature;BMP_pressure;BME280_temperature;BME280_humidity;BME280_pressure;Samples;Min_cycle;Max_cycle;Signal;HPM_P1;HPM_P2
2021/10/22 00:01:13;;;;;;;4.00;1.30;;;;;;;15.45;65.42;99739.25;6270666;28;20288;-72
2021/10/22 00:04:14;;;;;;;4.05;1.10;;;;;;;15.21;66.50;99752.69;6253286;28;20546;-73
2021/10/22 00:07:16;;;;;;;1.80;1.10;;;;;;;15.20;66.30;99746.63;6253442;28;20136;-73
2021/10/22 00:10:16;;;;;;;1.75;0.88;;;;;;;15.35;65.32;99757.59;6270833;28;20094;-73
2021/10/22 00:13:18;;;;;;;6.35;1.20;;;;;;;15.31;66.11;99756.19;6270809;28;20049;-73
2021/10/22 00:16:21;;;;;;;2.80;1.08;;;;;;;15.06;65.69;99767.97;6269778;28;20059;-73
2021/10/22 00:19:22;;;;;;;1.75;0.95;;;;;;;15.11;66.02;99771.03;6253370;28;20514;-73
2021/10/22 00:22:22;;;;;;;3.00;1.00;;;;;;;15.03;66.35;99770.84;6269576;28;20041;-72
2021/10/22 00:25:23;;;;;;;5.88;2.08;;;;;;;15.14;66.64;99772.59;6252900;28;20463;-73
2021/10/22 00:28:24;;;;;;;3.25;1.00;;;;;;;14.98;66.31;99776.47;6269365;28;20076;-73
2021/10/22 00:31:25;;;;;;;4.25;0.93;;;;;;;15.03;66.50;99776.09;6236562;28;20395;-73
2021/10/22 00:34:28;;;;;;;6.83;1.50;;;;;;;15.05;66.73;99774.16;6269454;28;20060;-73
2021/10/22 00:37:28;;;;;;;4.95;0.95;;;;;;;15.10;66.25;99764.13;6269429;28;20048;-72
2021/10/22 00:40:29;;;;;;;4.35;1.48;;;;;;;14.97;67.05;99766.97;6269601;28;20037;-72
2021/10/22 00:43:32;;;;;;;4.50;0.98;;;;;;;15.09;66.79;99763.28;6269359;28;20055;-72
2021/10/22 00:46:37;;;;;;;9.10;1.10;;;;;;;15.18;67.02;99755.59;6252705;28;20041;-73
2021/10/22 00:49:38;;;;;;;13.20;1.65;;;;;;;15.17;66.77;99753.91;6269434;28;20037;-73
2021/10/22 00:52:40;;;;;;;5.47;1.30;;;;;;;15.10;67.09;99753.59;6252739;28;20388;-72
2021/10/22 00:55:41;;;;;;;6.60;1.13;;;;;;;15.07;66.62;99745.97;6270227;28;20049;-73
2021/10/22 00:58:42;;;;;;;6.35;1.42;;;;;;;15.06;67.17;99741.69;6252438;28;20056;-73
2021/10/22 01:01:43;;;;;;;3.53;1.40;;;;;;;15.14;66.71;99741.06;6236235;28;20099;-73
2021/10/22 01:04:44;;;;;;;2.45;1.10;;;;;;;15.17;66.62;99744.22;6270243;28;20041;-73
2021/10/22 01:07:44;;;;;;;7.22;1.38;;;;;;;15.10;67.24;99745.72;6268916;28;20048;-73
2021/10/22 01:10:46;;;;;;;4.30;1.20;;;;;;;14.85;68.09;99749.59;6270120;28;20041;-72
2021/10/22 01:13:47;;;;;;;2.20;1.27;;;;;;;14.78;68.98;99749.25;6256537;28;20041;-72
2021/10/22 01:16:48;;;;;;;3.88;1.38;;;;;;;14.84;68.58;99747.91;6256723;28;20045;-72
2021/10/22 01:19:49;;;;;;;3.85;1.33;;;;;;;14.71;69.07;99735.81;6274473;28;20045;-72
2021/10/22 01:22:52;;;;;;;4.28;1.23;;;;;;;14.73;68.80;99740.94;6273137;28;20123;-72
2021/10/22 01:25:53;;;;;;;3.25;1.17;;;;;;;14.67;69.60;99742.28;6274235;28;20037;-72
2021/10/22 01:28:53;;;;;;;2.55;1.17;;;;;;;14.74;69.16;99739.13;6272857;28;20067;-73
2021/10/22 01:31:54;;;;;;;3.95;1.08;;;;;;;14.63;68.99;99738.22;6273133;28;20074;-72
2021/10/22 01:34:55;;;;;;;2.60;1.13;;;;;;;14.69;68.90;99729.03;6272871;28;20450;-72
2021/10/22 01:37:56;;;;;;;3.13;0.80;;;;;;;14.65;68.60;99730.25;6256278;28;20457;-73
2021/10/22 01:40:58;;;;;;;9.52;1.92;;;;;;;14.70;68.79;99735.94;6256448;28;20404;-72
2021/10/22 01:44:01;;;;;;;10.77;1.10;;;;;;;14.60;70.40;99730.63;6272740;28;20045;-72
2021/10/22 01:47:02;;;;;;;8.55;1.75;;;;;;;14.67;70.59;99723.88;6240055;28;20084;-73
2021/10/22 01:50:03;;;;;;;3.47;1.08;;;;;;;14.60;71.88;99733.25;6255951;28;20136;-72
2021/10/22 01:53:04;;;;;;;6.47;1.10;;;;;;;14.50;71.84;99734.94;6272488;28;20049;-72
2021/10/22 01:56:05;;;;;;;2.40;1.08;;;;;;;14.60;71.88;99738.50;6273376;28;20550;-73
2021/10/22 01:59:06;;;;;;;3.85;1.38;;;;;;;14.46;72.37;99749.28;6255891;28;20048;-73
2021/10/22 02:02:07;;;;;;;9.85;1.40;;;;;;;14.34;72.78;99747.66;6255678;28;20487;-73
2021/10/22 02:05:08;;;;;;;6.40;1.55;;;;;;;14.21;73.49;99761.78;6272157;28;20468;-73
2021/10/22 02:08:09;;;;;;;2.45;1.10;;;;;;;14.27;72.93;99753.41;6273223;28;20048;-74
2021/10/22 02:11:10;;;;;;;7.53;1.10;;;;;;;14.09;73.95;99762.75;6255391;28;20458;-72
2021/10/22 02:14:11;;;;;;;2.40;1.08;;;;;;;14.02;74.60;99774.69;6255487;28;20041;-72
2021/10/22 02:17:12;;;;;;;7.00;1.20;;;;;;;13.86;75.21;99777.72;6272939;28;20041;-73
2021/10/22 02:20:13;;;;;;;7.38;1.20;;;;;;;13.95;73.99;99778.75;6273154;28;20553;-73
2021/10/22 02:23:13;;;;;;;6.45;1.40;;;;;;;13.93;74.02;99785.91;6271645;28;20044;-73
2021/10/22 02:26:14;;;;;;;10.85;1.55;;;;;;;13.95;73.81;99778.75;6272806;28;20041;-72
2021/10/22 02:29:15;;;;;;;5.43;1.00;;;;;;;14.05;73.09;99792.81;6271454;28;20041;-73
2021/10/22 02:32:16;;;;;;;4.35;1.00;;;;;;;13.91;73.68;99791.28;6271827;28;20053;-72
2021/10/22 02:35:17;;;;;;;3.92;1.08;;;;;;;13.99;73.13;99793.31;6271435;28;20402;-73
2021/10/22 02:38:18;;;;;;;4.68;1.15;;;;;;;13.95;72.97;99794.50;6271110;28;20407;-73
2021/10/22 02:41:18;;;;;;;3.08;1.23;;;;;;;13.99;72.88;99788.06;6254845;28;20052;-72
2021/10/22 02:44:19;;;;;;;6.35;1.95;;;;;;;13.88;72.87;99794.16;6271434;28;20123;-73
2021/10/22 02:47:20;;;;;;;7.30;1.58;;;;;;;13.97;72.46;99798.66;6272139;28;20053;-73
2021/10/22 02:50:21;;;;;;;2.80;1.20;;;;;;;13.81;72.24;99804.28;6254575;28;20052;-73
2021/10/22 02:53:22;;;;;;;4.20;1.10;;;;;;;13.84;72.21;99809.28;6272350;28;20048;-73
2021/10/22 02:56:23;;;;;;;1.95;1.20;;;;;;;13.99;71.38;99815.13;6270855;28;20037;-73
2021/10/22 02:59:24;;;;;;;3.90;1.25;;;;;;;13.73;72.48;99811.09;6254382;28;20048;-73
2021/10/22 03:02:25;;;;;;;2.70;1.08;;;;;;;13.87;71.45;99818.69;6270902;28;20511;-73
2021/10/22 03:05:29;;;;;;;4.90;1.02;;;;;;;13.95;70.90;99834.66;6270806;28;20045;-73
2021/10/22 03:08:29;;;;;;;5.38;1.10;;;;;;;13.98;71.11;99844.94;6254667;28;20076;-73
2021/10/22 03:11:31;;;;;;;3.80;1.33;;;;;;;13.81;70.16;99848.84;6270686;28;20040;-73
2021/10/22 03:14:31;;;;;;;7.47;1.33;;;;;;;13.81;70.77;99866.38;6271850;28;20077;-73
2021/10/22 03:17:32;;;;;;;3.50;1.10;;;;;;;13.83;70.10;99857.44;6271539;28;20048;-73
2021/10/22 03:20:35;;;;;;;2.15;0.93;;;;;;;13.82;69.35;99853.16;6253949;28;20045;-73
2021/10/22 03:23:35;;;;;;;;;;;;;;;13.95;69.17;99850.41;6271106;28;20064;-73
2021/10/22 03:26:36;;;;;;;1.52;1.02;;;;;;;13.65;70.45;99867.59;6253842;28;20368;-73
2021/10/22 03:29:38;;;;;;;2.53;1.20;;;;;;;13.79;70.18;99876.97;6271304;28;20045;-72
2021/10/22 03:32:39;;;;;;;3.80;0.98;;;;;;;13.85;69.32;99879.13;6270366;28;20045;-73
2021/10/22 03:35:40;;;;;;;1.27;0.82;;;;;;;13.86;68.68;99885.25;6269752;28;20052;-73
2021/10/22 03:38:40;;;;;;;1.45;0.70;;;;;;;13.82;68.33;99887.25;6271232;28;20041;-73
2021/10/22 03:41:41;;;;;;;5.10;1.00;;;;;;;13.95;67.99;99887.13;6270108;28;20084;-72
2021/10/22 03:44:42;;;;;;;2.58;1.30;;;;;;;13.82;68.58;99882.00;6253780;28;20487;-73
2021/10/22 03:47:43;;;;;;;3.53;1.05;;;;;;;13.82;67.34;99882.00;6270760;28;20526;-73
2021/10/22 03:50:44;;;;;;;4.65;1.05;;;;;;;13.68;68.06;99875.19;6270384;28;20061;-73
2021/10/22 03:53:44;;;;;;;3.28;1.13;;;;;;;13.75;67.33;99883.41;6253511;28;20041;-73
2021/10/22 03:56:45;;;;;;;3.67;0.88;;;;;;;13.45;68.83;99868.28;6269748;28;20099;-72
2021/10/22 03:59:46;;;;;;;2.60;0.80;;;;;;;13.57;68.17;99876.97;6269763;28;20056;-73
2021/10/22 04:02:47;;;;;;;2.70;0.82;;;;;;;13.51;67.95;99883.53;6269836;28;20044;-73
2021/10/22 04:05:48;;;;;;;5.80;1.25;;;;;;;13.50;69.05;99889.72;6269920;28;20049;-73
2021/10/22 04:08:48;;;;;;;3.17;1.00;;;;;;;13.52;68.24;99886.97;6269638;28;20041;-73
2021/10/22 04:11:49;;;;;;;2.72;0.90;;;;;;;13.50;67.85;99881.84;6270857;28;20047;-73
2021/10/22 04:14:50;;;;;;;2.28;1.00;;;;;;;13.46;67.69;99877.78;6271322;28;20037;-73
2021/10/22 04:17:50;;;;;;;2.03;0.77;;;;;;;13.42;68.43;99876.34;6270669;28;20047;-73
2021/10/22 04:20:51;;;;;;;5.53;0.90;;;;;;;13.43;68.79;99876.25;6270996;28;20140;-73
2021/10/22 04:23:52;;;;;;;3.72;0.82;;;;;;;13.46;67.48;99883.84;6269398;28;20094;-73
2021/10/22 04:26:53;;;;;;;3.38;0.73;;;;;;;13.41;68.01;99882.56;6270766;28;20487;-73
2021/10/22 04:29:54;;;;;;;2.20;0.88;;;;;;;13.37;67.91;99902.91;6269313;28;20037;-72
2021/10/22 04:32:55;;;;;;;3.70;1.27;;;;;;;13.30;68.59;99894.69;6252904;28;20048;-73
2021/10/22 04:35:55;;;;;;;2.53;0.73;;;;;;;13.28;67.81;99893.94;6236518;28;20041;-73
2021/10/22 04:42:15;;;;;;;1.77;0.70;;;;;;;13.32;66.85;99897.16;6269485;28;20063;-73
2021/10/22 04:45:18;;;;;;;4.05;0.85;;;;;;;13.40;66.62;99900.03;6252676;28;20489;-73
2021/10/22 04:48:20;;;;;;;2.35;0.55;;;;;;;13.46;65.68;99902.19;6272375;28;20107;-73
2021/10/22 04:51:22;;;;;;;11.93;5.93;;;;;;;13.45;66.04;99899.72;6275589;28;20412;-73
2021/10/22 04:54:23;;;;;;;48.20;34.05;;;;;;;13.54;65.34;99904.25;6275145;28;20041;-73
2021/10/22 04:57:23;;;;;;;26.80;17.50;;;;;;;13.63;65.19;99907.94;6274884;28;20047;-73
2021/10/22 05:00:24;;;;;;;3.08;1.60;;;;;;;13.48;64.90;99910.78;6275259;28;20051;-73
2021/10/22 05:03:25;;;;;;;4.43;2.72;;;;;;;13.44;65.04;99916.38;6273553;28;20179;-74
2021/10/22 05:06:26;;;;;;;1.40;0.82;;;;;;;13.43;64.87;99926.03;6273634;28;20048;-74
2021/10/22 05:09:26;;;;;;;2.17;1.00;;;;;;;13.47;64.76;99930.09;6274725;28;20048;-74
2021/10/22 05:12:27;;;;;;;3.67;1.40;;;;;;;13.41;64.99;99925.31;6273472;28;20415;-73
2021/10/22 05:15:28;;;;;;;6.75;1.10;;;;;;;13.31;64.80;99924.31;6240704;28;20084;-73
2021/10/22 05:18:32;;;;;;;5.47;2.88;;;;;;;13.47;64.45;99929.28;6274350;28;20073;-73
2021/10/22 05:21:32;;;;;;;6.15;2.63;;;;;;;13.50;64.55;99937.72;6274690;28;20555;-73
2021/10/22 05:24:33;;;;;;;9.15;4.10;;;;;;;13.61;63.86;99928.22;6273113;28;20041;-73
2021/10/22 05:27:35;;;;;;;7.47;2.45;;;;;;;13.61;63.00;99931.69;6273174;28;20045;-73
2021/10/22 05:30:35;;;;;;;4.45;2.35;;;;;;;13.62;63.75;99937.75;6274001;28;20141;-72
2021/10/22 05:33:36;;;;;;;5.03;2.35;;;;;;;13.50;64.62;99942.97;6274257;28;20488;-73
2021/10/22 05:36:37;;;;;;;3.72;1.17;;;;;;;13.38;65.18;99948.28;6274424;28;20237;-77
2021/10/22 05:39:37;;;;;;;3.92;1.55;;;;;;;13.45;64.62;99952.97;6273166;28;20122;-77
2021/10/22 05:42:38;;;;;;;1.92;1.10;;;;;;;13.48;64.50;99960.59;6273646;28;20048;-77
2021/10/22 05:45:39;;;;;;;10.02;3.20;;;;;;;13.52;64.36;99963.81;6273230;28;20048;-77
2021/10/22 05:48:40;;;;;;;8.88;4.28;;;;;;;13.42;65.72;99961.03;6272289;28;20246;-76
2021/10/22 05:51:41;;;;;;;6.95;2.28;;;;;;;13.47;64.24;99969.41;6256313;28;20174;-76
2021/10/22 05:54:44;;;;;;;4.95;3.17;;;;;;;13.49;65.10;99970.13;6273243;28;20049;-77
2021/10/22 05:57:45;;;;;;;63.53;28.17;;;;;;;13.46;65.79;99983.44;6272534;28;20446;-77
2021/10/22 06:00:46;;;;;;;8.02;4.55;;;;;;;13.53;66.03;99985.63;6273010;28;20072;-76
2021/10/22 06:03:46;;;;;;;2.35;1.10;;;;;;;13.61;66.08;99988.50;6274130;28;20037;-77
2021/10/22 06:06:47;;;;;;;1.77;0.88;;;;;;;13.65;65.71;99995.19;6256406;28;20549;-77
2021/10/22 06:09:48;;;;;;;3.90;1.20;;;;;;;13.60;66.22;99987.69;6272654;28;20469;-76
2021/10/22 06:12:49;;;;;;;3.65;1.00;;;;;;;13.61;67.25;99986.75;6272660;28;20509;-76
2021/10/22 06:15:50;;;;;;;4.45;0.90;;;;;;;13.74;66.09;99991.06;6256202;28;20407;-77
2021/10/22 06:18:52;;;;;;;3.03;1.27;;;;;;;13.73;66.05;99998.06;6272581;28;20049;-77
2021/10/22 06:25:18;;;;;;;3.20;1.27;;;;;;;14.04;65.11;100020.22;6272960;28;19927;-76
2021/10/22 06:28:19;;;;;;;;;;;;;;;14.06;66.97;100022.72;6273764;28;20045;-76
2021/10/22 06:31:21;;;;;;;4.45;1.20;;;;;;;14.03;65.98;100033.44;6255587;28;20306;-76
2021/10/22 06:34:24;;;;;;;4.20;1.10;;;;;;;14.01;66.16;100028.31;6273508;28;20052;-76
2021/10/22 06:37:25;;;;;;;4.22;0.88;;;;;;;14.03;66.17;100034.28;6255694;28;20039;-76
2021/10/22 06:40:26;;;;;;;3.97;0.90;;;;;;;14.21;65.53;100032.06;6273200;28;20041;-76
2021/10/22 06:43:28;;;;;;;2.40;0.90;;;;;;;14.22;65.18;100033.69;6273062;28;20091;-76
2021/10/22 06:46:29;;;;;;;2.40;0.95;;;;;;;14.17;65.44;100033.22;6222399;28;20053;-76
2021/10/22 06:49:30;;;;;;;5.28;1.00;;;;;;;14.21;65.98;100044.34;6255242;28;20045;-76
2021/10/22 06:52:31;;;;;;;1.85;0.80;;;;;;;14.26;64.97;100050.88;6255168;28;20045;-77
2021/10/22 06:55:32;;;;;;;3.00;0.93;;;;;;;14.40;64.86;100051.63;6271681;28;20084;-76
2021/10/22 06:58:33;;;;;;;12.23;0.98;;;;;;;14.26;64.81;100050.06;6271367;28;20121;-76
2021/10/22 07:01:34;;;;;;;4.75;1.23;;;;;;;14.34;65.59;100055.56;6255326;28;20041;-76
2021/10/22 07:04:36;;;;;;;2.72;0.80;;;;;;;14.40;65.21;100067.38;6271400;28;20499;-76
2021/10/22 07:07:37;;;;;;;7.97;1.52;;;;;;;14.56;64.46;100060.03;6254921;28;20045;-77
2021/10/22 07:10:39;;;;;;;2.10;0.77;;;;;;;14.70;64.43;100065.03;6270329;28;20543;-76
2021/10/22 07:13:40;;;;;;;3.28;0.85;;;;;;;14.82;63.41;100075.53;6271213;28;20052;-76
2021/10/22 07:16:42;;;;;;;4.50;0.88;;;;;;;14.91;62.92;100088.78;6271377;28;20039;-77
2021/10/22 07:19:43;;;;;;;;;;;;;;;14.97;62.80;100090.09;6271627;28;20069;-77
2021/10/22 07:22:50;;;;;;;14.02;1.30;;;;;;;15.27;62.41;100102.59;6272149;28;19927;-77
2021/10/22 07:25:50;;;;;;;0.73;0.63;;;;;;;15.14;62.01;100096.66;6255484;28;20514;-76
2021/10/22 07:28:51;;;;;;;5.18;1.27;;;;;;;15.25;61.62;100107.13;6272088;28;20037;-76
2021/10/22 07:31:52;;;;;;;4.20;1.00;;;;;;;15.20;61.56;100104.03;6270759;28;20049;-76
2021/10/22 07:34:52;;;;;;;4.00;1.00;;;;;;;15.53;60.47;100115.44;6270831;28;20041;-76
2021/10/22 07:37:53;;;;;;;4.72;1.40;;;;;;;15.90;60.10;100123.00;6271924;28;20037;-76
2021/10/22 07:40:54;;;;;;;8.02;1.10;;;;;;;16.01;58.89;100133.47;6271748;28;20087;-76
2021/10/22 07:43:55;;;;;;;3.97;0.93;;;;;;;16.11;57.06;100134.38;6270501;28;20075;-76
2021/10/22 07:46:57;;;;;;;3.38;1.25;;;;;;;16.50;56.79;100125.91;6270361;28;20324;-76
2021/10/22 07:49:58;;;;;;;2.42;1.00;;;;;;;16.44;56.91;100129.88;6270514;28;20641;-76
2021/10/22 07:52:59;;;;;;;1.75;0.85;;;;;;;16.27;56.92;100135.75;6270349;28;20098;-76
2021/10/22 07:55:59;;;;;;;1.98;0.82;;;;;;;15.97;57.41;100139.13;6270426;28;20045;-76
2021/10/22 07:59:00;;;;;;;2.50;1.23;;;;;;;16.38;56.89;100142.75;6270395;28;20056;-76
2021/10/22 08:02:01;;;;;;;5.53;1.17;;;;;;;16.63;55.45;100133.59;6270717;28;20116;-76
2021/10/22 08:05:03;;;;;;;2.42;0.90;;;;;;;16.42;54.86;100149.41;6253854;28;20057;-76
2021/10/22 08:08:06;;;;;;;4.18;1.48;;;;;;;16.75;54.26;100145.72;6270288;28;20483;-76
2021/10/22 08:11:07;;;;;;;4.00;1.10;;;;;;;16.90;54.35;100151.50;6270317;28;20049;-76
2021/10/22 08:14:08;;;;;;;3.15;1.38;;;;;;;16.77;55.03;100151.69;6271582;28;20533;-76
2021/10/22 08:17:09;;;;;;;3.63;1.27;;;;;;;16.75;53.63;100145.72;6237590;28;20407;-76
2021/10/22 08:20:16;;;;;;;3.58;1.23;;;;;;;16.85;54.00;100154.53;6270341;28;20045;-76
2021/10/22 08:23:18;;;;;;;4.00;1.20;;;;;;;16.52;54.21;100158.22;6275312;28;20048;-76
2021/10/22 08:26:19;;;;;;;2.53;0.90;;;;;;;16.62;54.45;100160.91;6275148;28;20051;-76
2021/10/22 08:29:20;;;;;;;11.38;1.30;;;;;;;16.46;55.01;100161.38;6275043;28;20037;-76
2021/10/22 08:32:21;;;;;;;4.05;1.20;;;;;;;16.55;54.55;100170.28;6276323;28;20041;-76
2021/10/22 08:35:25;;;;;;;7.40;1.10;;;;;;;16.65;54.51;100168.53;6276238;28;20052;-76
2021/10/22 08:38:26;;;;;;;2.53;0.98;;;;;;;16.43;54.47;100172.13;6276223;28;20541;-76
2021/10/22 08:41:27;;;;;;;4.83;1.10;;;;;;;16.63;54.75;100166.03;6276083;28;20116;-76
2021/10/22 08:44:31;;;;;;;7.38;1.20;;;;;;;17.15;53.45;100175.75;6274731;28;20511;-76
2021/10/22 08:47:33;;;;;;;6.35;1.10;;;;;;;16.87;52.59;100176.31;6275573;28;20057;-76
2021/10/22 08:50:34;;;;;;;2.85;0.75;;;;;;;17.05;52.71;100170.44;6258098;28;20051;-76
2021/10/22 08:53:37;;;;;;;3.60;1.10;;;;;;;16.91;52.84;100159.28;6275870;28;20052;-76
2021/10/22 08:56:42;;;;;;;4.25;0.93;;;;;;;17.22;52.06;100158.44;6274635;28;20041;-76
2021/10/22 08:59:43;;;;;;;2.45;1.10;;;;;;;17.28;51.99;100166.63;6274566;28;20063;-76
2021/10/22 09:02:45;;;;;;;2.03;0.82;;;;;;;17.31;51.26;100174.25;6274504;28;20509;-76
2021/10/22 09:06:03;;;;;;;3.05;0.70;;;;;;;17.67;51.32;100174.66;6257968;28;20475;-76
2021/10/22 09:09:04;;;;;;;6.25;1.08;;;;;;;17.86;50.67;100163.31;6275540;28;20486;-76
2021/10/22 09:12:05;;;;;;;2.03;1.00;;;;;;;18.18;48.96;100166.63;6274161;28;20037;-76
2021/10/22 09:15:08;;;;;;;2.25;1.00;;;;;;;17.82;47.81;100174.25;6274103;28;20045;-76
2021/10/22 09:18:28;;;;;;;3.08;1.13;;;;;;;18.36;47.28;100169.41;6290754;28;20077;-76
2021/10/22 09:21:31;;;;;;;5.53;0.95;;;;;;;18.24;48.13;100171.34;6275150;28;20048;-76
2021/10/22 09:24:32;;;;;;;4.13;0.93;;;;;;;18.15;47.27;100165.13;6274949;28;20049;-76
2021/10/22 09:27:34;;;;;;;6.40;1.08;;;;;;;18.03;46.85;100169.69;6275096;28;20075;-76
2021/10/22 09:30:45;;;;;;;;;;;;;;;18.33;47.32;100173.19;6275333;28;20041;-76
2021/10/22 09:34:04;;;;;;;3.10;0.80;;;;;;;18.43;46.89;100170.50;6273100;28;19920;-76
2021/10/22 09:37:11;;;;;;;3.72;1.00;;;;;;;18.19;46.24;100169.16;6257121;28;20045;-76
2021/10/22 09:40:11;;;;;;;4.35;0.80;;;;;;;18.42;45.84;100172.31;6274814;28;20048;-77
2021/10/22 09:43:21;;;;;;;7.22;1.85;;;;;;;19.09;44.29;100157.28;6273429;28;20067;-76
2021/10/22 09:46:23;;;;;;;4.57;1.23;;;;;;;19.32;44.28;100162.19;6274353;28;20487;-76
2021/10/22 09:49:26;;;;;;;7.68;0.90;;;;;;;19.24;44.47;100167.38;6273307;28;20073;-76
2021/10/22 09:52:28;;;;;;;4.28;0.80;;;;;;;19.48;42.58;100172.13;6273314;28;20037;-76
2021/10/22 09:55:29;;;;;;;1.65;0.82;;;;;;;19.05;42.49;100168.28;6257016;28;20048;-76
2021/10/22 09:58:30;;;;;;;2.22;0.90;;;;;;;19.18;41.52;100167.94;6273510;28;20541;-76
2021/10/22 10:01:39;;;;;;;6.72;1.00;;;;;;;18.69;44.38;100168.09;6274359;28;20094;-76
2021/10/22 10:04:40;;;;;;;0.80;0.50;;;;;;;18.45;43.29;100166.75;6273108;28;20507;-76
2021/10/22 10:07:46;;;;;;;6.35;0.80;;;;;;;19.00;43.51;100165.25;6273081;28;20040;-77
2021/10/22 10:10:47;;;;;;;3.53;1.05;;;;;;;19.10;43.47;100163.38;6272980;28;20041;-76
2021/10/22 10:13:48;;;;;;;3.45;0.77;;;;;;;19.16;42.86;100170.75;6272983;28;20044;-76
2021/10/22 10:16:50;;;;;;;2.53;0.90;;;;;;;19.31;41.79;100166.66;6272817;28;20128;-76
2021/10/22 10:19:53;;;;;;;5.90;0.80;;;;;;;19.19;42.91;100174.91;6256461;28;20044;-76
2021/10/22 10:22:56;;;;;;;1.85;0.80;;;;;;;19.28;42.85;100153.69;6256272;28;20143;-76
2021/10/22 10:26:20;;;;;;;5.50;0.80;;;;;;;19.85;42.25;100155.31;6273965;28;20044;-76
2021/10/22 10:29:30;;;;;;;9.38;1.10;;;;;;;19.95;41.83;100155.22;6274120;28;20507;-76
2021/10/22 10:32:33;;;;;;;2.42;0.95;;;;;;;20.00;40.22;100151.16;6273806;28;20407;-76
2021/10/22 10:35:43;;;;;;;2.53;0.82;;;;;;;19.88;42.56;100165.59;6272485;28;20037;-76
2021/10/22 10:38:46;;;;;;;3.75;0.90;;;;;;;20.29;40.28;100158.00;6255948;28;20044;-76
2021/10/22 10:41:47;;;;;;;2.03;0.90;;;;;;;20.03;41.13;100142.88;6273504;28;20041;-76
2021/10/22 10:44:49;;;;;;;3.45;1.02;;;;;;;20.23;41.13;100143.56;6255855;28;20102;-76
2021/10/22 10:47:55;;;;;;;8.45;1.40;;;;;;;20.08;41.18;100137.16;6273233;28;20053;-76
2021/10/22 10:51:07;;;;;;;3.45;0.90;;;;;;;20.50;41.59;100139.09;6272418;28;20408;-73
2021/10/22 10:54:08;;;;;;;3.45;0.98;;;;;;;20.04;39.70;100131.31;6272127;28;20041;-74
2021/10/22 10:57:23;;;;;;;3.08;0.90;;;;;;;20.48;40.87;100135.78;6272085;28;20045;-74
2021/10/22 11:00:32;;;;;;;3.95;1.10;;;;;;;20.78;39.34;100134.50;6271995;28;20041;-73
2021/10/22 11:03:45;;;;;;;3.00;0.88;;;;;;;20.80;39.69;100118.44;6271986;28;20488;-73
2021/10/22 11:06:50;;;;;;;2.33;0.90;;;;;;;20.74;39.28;100130.50;6254406;28;20388;-74
2021/10/22 11:09:52;;;;;;;5.32;1.10;;;;;;;21.18;39.85;100118.91;6271385;28;20552;-73
2021/10/22 11:13:13;;;;;;;2.10;0.70;;;;;;;20.78;39.89;100123.06;6270454;28;20040;-73
2021/10/22 11:16:20;;;;;;;4.72;0.88;;;;;;;21.03;40.08;100118.72;6270527;28;20037;-73
2021/10/22 11:19:33;;;;;;;2.65;0.80;;;;;;;20.88;39.31;100111.34;6271838;28;20048;-74
2021/10/22 11:22:35;;;;;;;2.05;0.73;;;;;;;20.80;38.59;100123.75;6270317;28;20048;-73
2021/10/22 11:25:36;;;;;;;3.75;0.85;;;;;;;20.72;38.87;100117.41;6253734;28;20466;-73
2021/10/22 11:28:36;;;;;;;3.40;1.00;;;;;;;20.81;39.44;100112.97;6270207;28;20067;-73
2021/10/22 11:31:41;;;;;;;1.73;0.80;;;;;;;20.45;38.29;100115.72;6270110;28;20044;-73
2021/10/22 11:34:57;;;;;;;2.05;0.60;;;;;;;20.62;38.25;100099.94;6270125;28;20084;-73
2021/10/22 11:38:05;;;;;;;2.78;0.95;;;;;;;20.09;39.12;100113.13;6271240;28;20048;-73
2021/10/22 11:41:13;;;;;;;2.92;0.77;;;;;;;20.53;39.36;100109.66;6286985;28;20144;-73
2021/10/22 11:44:14;;;;;;;2.20;0.82;;;;;;;20.85;38.84;100102.88;6269770;28;20505;-73
2021/10/22 11:47:15;;;;;;;7.82;0.85;;;;;;;20.76;38.16;100099.38;6270971;28;20045;-73
2021/10/22 11:50:30;;;;;;;4.90;0.77;;;;;;;20.94;37.38;100099.28;6269761;28;20047;-73
2021/10/22 11:53:31;;;;;;;12.50;1.45;;;;;;;20.90;37.50;100097.94;6271030;28;20037;-73
2021/10/22 11:56:34;;;;;;;4.20;0.70;;;;;;;21.00;37.47;100092.50;6252899;28;20068;-73
2021/10/22 11:59:40;;;;;;;3.35;0.77;;;;;;;20.65;37.73;100102.28;6270967;28;20537;-73
2021/10/22 12:02:42;;;;;;;2.33;0.70;;;;;;;20.32;37.09;100097.59;6269724;28;20391;-73
2021/10/22 12:05:44;;;;;;;2.03;0.68;;;;;;;20.26;37.23;100102.66;6269805;28;20467;-73
2021/10/22 12:08:45;;;;;;;2.92;1.13;;;;;;;20.56;37.93;100095.25;6269550;28;20041;-74
2021/10/22 12:12:06;;;;;;;4.47;1.02;;;;;;;20.71;37.66;100097.19;6253278;28;20109;-73
2021/10/22 12:15:10;;;;;;;5.57;0.90;;;;;;;21.05;37.62;100090.19;6270635;28;20037;-73
2021/10/22 12:18:12;;;;;;;7.60;0.73;;;;;;;20.95;37.66;100095.63;6270708;28;20040;-74
2021/10/22 12:21:13;;;;;;;2.38;0.70;;;;;;;19.80;38.48;100102.81;6252809;28;20077;-73
2021/10/22 12:24:15;;;;;;;2.25;0.75;;;;;;;20.67;37.81;100102.94;6270679;28;20045;-73
2021/10/22 12:27:16;;;;;;;14.50;1.00;;;;;;;20.52;38.21;100094.72;6269547;28;20041;-73
2021/10/22 12:30:19;;;;;;;1.65;0.68;;;;;;;20.71;38.51;100096.34;6269391;28;20045;-73
2021/10/22 12:33:20;;;;;;;1.45;0.68;;;;;;;20.58;37.39;100086.19;6269416;28;20182;-74
2021/10/22 12:36:24;;;;;;;2.07;0.83;;;;;;;20.40;38.58;100083.56;6269281;28;20037;-73
2021/10/22 12:39:27;;;;;;;1.80;0.73;;;;;;;19.71;38.70;100079.91;6270545;28;20045;-73
2021/10/22 12:42:30;;;;;;;4.47;1.75;;;;;;;19.96;39.04;100093.34;6269122;28;20045;-73
2021/10/22 12:45:32;;;;;;;6.60;1.00;;;;;;;19.82;39.72;100087.59;6269281;28;20124;-73
2021/10/22 12:48:37;;;;;;;2.05;0.82;;;;;;;19.99;38.90;100085.09;6270077;28;20061;-73
2021/10/22 12:51:38;;;;;;;2.80;1.00;;;;;;;20.21;39.15;100083.78;6269052;28;20048;-73
2021/10/22 12:54:47;;;;;;;4.35;1.00;;;;;;;20.33;38.31;100082.53;6269132;28;20041;-73
2021/10/22 12:57:47;;;;;;;6.28;0.90;;;;;;;19.98;38.87;100078.16;6269232;28;20475;-73
2021/10/22 13:01:13;;;;;;;2.35;0.85;;;;;;;19.90;38.51;100085.03;6269101;28;20052;-73
2021/10/22 13:04:23;;;;;;;8.07;4.18;;;;;;;19.79;38.80;100082.63;6268927;28;20037;-73
2021/10/22 13:07:35;;;;;;;4.25;0.85;;;;;;;19.76;40.47;100084.75;6269454;28;20041;-74
2021/10/22 13:23:25;;;;;;;6.07;0.90;;;;;;;20.11;39.95;100078.56;6274443;28;19924;-73
2021/10/22 13:26:26;;;;;;;4.93;0.68;;;;;;;19.84;40.12;100076.88;6256738;28;20033;-74
2021/10/22 13:29:27;;;;;;;12.00;0.90;;;;;;;19.62;41.00;100078.13;6273344;28;20048;-74
2021/10/22 13:32:29;;;;;;;7.40;1.00;;;;;;;19.37;40.67;100066.47;6273132;28;20110;-75
2021/10/22 13:35:31;;;;;;;6.28;1.52;;;;;;;19.32;40.72;100073.06;6256738;28;20403;-74
2021/10/22 13:38:32;;;;;;;;;;;;;;;19.24;41.39;100069.50;6274526;28;20041;-74
2021/10/22 13:41:33;;;;;;;5.60;2.80;;;;;;;19.25;41.89;100077.28;6274197;28;19925;-74
2021/10/22 13:44:35;;;;;;;4.10;2.53;;;;;;;19.36;40.61;100078.06;6272726;28;20102;-75
2021/10/22 13:47:37;;;;;;;2.83;1.10;;;;;;;19.05;42.00;100076.56;6273920;28;20049;-73
2021/10/22 13:50:39;;;;;;;14.32;7.20;;;;;;;19.39;41.19;100078.56;6272902;28;20487;-74
2021/10/22 13:53:47;;;;;;;10.52;2.50;;;;;;;19.30;41.74;100082.13;6272620;28;20041;-74
2021/10/22 13:56:47;;;;;;;6.10;2.63;;;;;;;19.12;42.01;100079.44;6257076;28;20041;-73
2021/10/22 13:59:48;;;;;;;5.88;1.42;;;;;;;19.22;41.45;100077.56;6280498;28;20487;-74
2021/10/22 14:02:49;;;;;;;8.73;1.45;;;;;;;19.45;41.64;100071.84;6296727;28;20033;-73
2021/10/22 14:05:49;;;;;;;3.80;1.35;;;;;;;19.33;42.29;100073.88;6296509;28;20111;-74
2021/10/22 14:08:53;;;;;;;3.40;1.05;;;;;;;19.16;42.81;100070.25;6298009;28;20037;-73
2021/10/22 14:11:56;;;;;;;2.03;1.00;;;;;;;19.29;42.25;100070.72;6298189;28;20047;-73
2021/10/22 14:31:30;;;;;;;4.40;2.15;;;;;;;18.74;43.88;100052.22;6296706;28;20041;-73
2021/10/22 14:34:32;;;;;;;6.07;4.70;;;;;;;18.88;44.38;100058.84;6296386;28;20036;-73
2021/10/22 14:37:32;;;;;;;6.67;2.63;;;;;;;18.85;44.11;100054.69;6280130;28;20045;-73
2021/10/22 14:40:34;;;;;;;12.90;6.10;;;;;;;18.93;44.20;100062.72;6279762;28;20335;-74
2021/10/22 14:43:40;;;;;;;6.47;4.15;;;;;;;18.84;44.14;100062.75;6297272;28;20059;-74
2021/10/22 14:47:19;;;;;;;12.27;6.43;;;;;;;18.74;44.93;100057.50;6280009;28;20045;-75
2021/10/22 14:50:16;;;;;;;21.02;10.32;;;;;;;18.59;44.37;100061.59;6294218;28;20057;-75